Time;durP1;ratioP1;P1;durP2;ratioP2;P2;SDS_P1;SDS_P2;PMS_P1;PMS_P2;Temp;Humidity;BMP_temperature;BMP_pressure;BME280_temperature;BME280_humidity;BME280_pressure;Samples;Min_cycle;Max_cycle;Signal;HPM_P1;HPM_P2
2023/01/25 00:02:02;;;;;;;46.50;26.38;;;2.30;90.00;;;;;;5072496;28;20033;-76
2023/01/25 00:04:29;;;;;;;44.90;25.70;;;2.20;89.90;;;;;;5071856;28;20119;-76
2023/01/25 00:06:55;;;;;;;52.03;27.33;;;2.20;90.00;;;;;;5072095;28;20016;-76
2023/01/25 00:09:21;;;;;;;47.85;25.05;;;2.20;90.00;;;;;;5071614;28;20021;-78
2023/01/25 00:11:47;;;;;;;41.28;23.13;;;2.20;89.90;;;;;;5072012;28;20469;-75
2023/01/25 00:14:14;;;;;;;46.17;24.35;;;2.20;89.90;;;;;;5071783;28;20029;-75
2023/01/25 00:16:39;;;;;;;42.22;24.42;;;2.20;90.00;;;;;;5071513;28;20052;-76
2023/01/25 00:19:06;;;;;;;42.58;24.55;;;2.30;90.00;;;;;;5071689;28;20032;-76
2023/01/25 00:21:33;;;;;;;48.85;27.08;;;2.20;89.80;;;;;;5071615;28;20028;-76
2023/01/25 00:23:59;;;;;;;49.10;26.83;;;2.20;89.70;;;;;;5071205;28;20484;-75
2023/01/25 00:26:25;;;;;;;49.78;26.83;;;2.20;90.00;;;;;;5071685;28;20035;-76
2023/01/25 00:28:52;;;;;;;48.40;27.30;;;2.20;90.90;;;;;;5071612;28;20377;-76
2023/01/25 00:31:56;;;;;;;46.83;26.25;;;2.10;90.30;;;;;;5071696;28;20499;-76
2023/01/25 00:34:24;;;;;;;47.50;26.45;;;2.10;90.50;;;;;;5069765;28;20039;-76
2023/01/25 00:36:51;;;;;;;54.10;28.35;;;2.10;90.50;;;;;;5071584;28;20078;-77
2023/01/25 00:39:17;;;;;;;45.83;25.90;;;2.20;90.50;;;;;;5074584;28;20534;-75
2023/01/25 00:41:43;;;;;;;49.30;26.08;;;2.20;90.40;;;;;;5075234;28;20029;-76
2023/01/25 00:44:08;;;;;;;45.30;25.75;;;2.20;90.30;;;;;;5075564;28;20043;-78
2023/01/25 00:46:34;;;;;;;43.42;23.83;;;2.20;90.20;;;;;;5075203;28;20020;-75
2023/01/25 00:49:00;;;;;;;43.35;25.10;;;2.20;90.20;;;;;;5075123;28;20436;-76
2023/01/25 00:51:26;;;;;;;40.22;23.50;;;2.30;90.30;;;;;;5076494;28;20078;-76
2023/01/25 00:53:52;;;;;;;40.25;22.92;;;2.30;90.20;;;;;;5074834;28;20021;-76
2023/01/25 00:56:18;;;;;;;39.97;23.38;;;2.30;90.20;;;;;;5075342;28;20028;-77
2023/01/25 00:58:43;;;;;;;39.35;23.02;;;2.30;90.10;;;;;;5075257;28;20358;-77
2023/01/25 01:01:10;;;;;;;38.83;22.48;;;2.40;89.90;;;;;;5075206;28;20028;-76
2023/01/25 01:03:35;;;;;;;37.10;21.50;;;2.40;89.60;;;;;;5074695;28;20465;-75
2023/01/25 01:06:06;;;;;;;34.53;21.35;;;2.50;89.50;;;;;;5075040;28;20054;-77
2023/01/25 01:08:39;;;;;;;43.53;23.17;;;2.50;89.20;;;;;;5074923;28;20380;-74
2023/01/25 01:11:08;;;;;;;35.95;21.17;;;2.50;89.00;;;;;;5074842;28;20115;-74
2023/01/25 01:13:34;;;;;;;40.47;23.13;;;2.50;89.00;;;;;;5074523;28;20035;-74
2023/01/25 01:16:02;;;;;;;35.63;21.63;;;2.50;88.80;;;;;;5084830;28;20051;-74
2023/01/25 01:18:32;;;;;;;35.40;22.10;;;2.50;88.90;;;;;;5085157;28;20027;-73
2023/01/25 01:20:57;;;;;;;37.85;22.40;;;2.40;88.50;;;;;;5074590;28;20024;-75
2023/01/25 01:23:23;;;;;;;36.50;21.55;;;2.40;88.60;;;;;;5074890;28;20415;-74
2023/01/25 01:25:49;;;;;;;39.70;22.75;;;2.40;88.70;;;;;;5074401;28;20036;-75
2023/01/25 01:28:15;;;;;;;39.33;22.95;;;2.40;88.60;;;;;;5074735;28;20056;-75
2023/01/25 01:30:40;;;;;;;37.97;22.27;;;2.50;88.80;;;;;;5074604;28;20055;-76
2023/01/25 01:33:06;;;;;;;40.15;23.90;;;2.50;88.80;;;;;;5074631;28;20456;-76
2023/01/25 01:35:32;;;;;;;43.20;24.48;;;2.50;88.70;;;;;;5074586;28;20036;-76
2023/01/25 01:37:58;;;;;;;42.75;24.42;;;2.50;88.40;;;;;;5074385;28;20111;-75
2023/01/25 01:40:24;;;;;;;40.67;23.70;;;2.50;88.30;;;;;;5074463;28;20085;-75
2023/01/25 01:43:14;;;;;;;32.58;19.92;;;2.40;88.40;;;;;;5074048;28;20028;-75
2023/01/25 01:46:01;;;;;;;23.30;14.60;;;2.40;89.10;;;;;;5074075;28;20075;-75
2023/01/25 01:48:33;;;;;;;16.13;10.05;;;2.40;87.60;;;;;;5073923;28;20020;-76
2023/01/25 01:51:21;;;;;;;13.50;9.18;;;2.40;86.40;;;;;;5073191;28;20047;-76
2023/01/25 01:53:56;;;;;;;14.07;9.13;;;2.40;85.90;;;;;;5073970;28;20025;-75
2023/01/25 01:56:34;;;;;;;13.30;9.23;;;2.50;85.80;;;;;;5074097;28;20028;-76
2023/01/25 01:59:01;;;;;;;19.50;12.55;;;2.50;85.60;;;;;;5073892;28;20029;-76
2023/01/25 02:01:27;;;;;;;21.50;13.90;;;2.60;85.40;;;;;;5073790;28;20035;-75
2023/01/25 02:03:53;;;;;;;27.25;17.10;;;2.60;85.50;;;;;;5073540;28;20029;-75
2023/01/25 02:06:43;;;;;;;30.50;18.20;;;2.60;85.70;;;;;;5073971;28;20032;-75
2023/01/25 02:09:11;;;;;;;33.03;19.02;;;2.60;85.80;;;;;;5044696;28;20186;-75
2023/01/25 02:11:38;;;;;;;33.60;19.50;;;2.60;86.10;;;;;;5073690;28;20048;-75
2023/01/25 02:14:04;;;;;;;27.85;17.13;;;2.60;86.10;;;;;;5073000;28;20124;-76
2023/01/25 02:16:31;;;;;;;29.25;17.45;;;2.60;86.20;;;;;;5073616;28;20246;-76
2023/01/25 02:19:00;;;;;;;29.38;17.52;;;2.70;87.10;;;;;;5073809;28;20020;-76
2023/01/25 02:21:29;;;;;;;31.08;18.00;;;2.70;86.20;;;;;;5073646;28;20074;-76
2023/01/25 02:24:15;;;;;;;30.70;17.92;;;2.70;86.10;;;;;;5073450;28;20024;-78
2023/01/25 02:26:42;;;;;;;27.13;17.77;;;2.70;86.00;;;;;;5073236;28;20086;-75
2023/01/25 02:29:09;;;;;;;24.25;14.90;;;2.70;86.00;;;;;;5072989;28;20024;-76
2023/01/25 02:31:34;;;;;;;24.75;14.85;;;2.70;85.80;;;;;;5073319;28;20032;-79
2023/01/25 02:34:00;;;;;;;20.17;12.88;;;2.60;85.60;;;;;;5073529;28;20094;-75
2023/01/25 02:36:29;;;;;;;17.13;10.90;;;2.60;85.30;;;;;;5073474;28;20113;-78
2023/01/25 02:39:17;;;;;;;17.25;11.18;;;2.70;86.20;;;;;;5073140;28;20024;-75
2023/01/25 02:41:45;;;;;;;20.60;10.98;;;2.60;85.10;;;;;;5073104;28;20021;-75
2023/01/25 02:44:14;;;;;;;15.98;10.40;;;2.70;84.80;;;;;;5072904;28;20470;-74
2023/01/25 02:46:41;;;;;;;17.50;9.77;;;2.70;84.90;;;;;;5072882;28;20040;-74
2023/01/25 02:49:08;;;;;;;15.85;9.35;;;2.70;84.30;;;;;;5073180;28;20021;-75
2023/01/25 02:51:38;;;;;;;15.98;10.00;;;2.70;84.30;;;;;;5073030;28;20035;-75
2023/01/25 02:54:05;;;;;;;16.45;8.23;;;2.70;84.30;;;;;;5072589;28;20027;-75
2023/01/25 02:56:31;;;;;;;12.35;8.07;;;2.70;84.20;;;;;;5072754;28;20116;-74
2023/01/25 02:58:57;;;;;;;13.38;8.65;;;2.70;83.90;;;;;;5072768;28;20452;-75
2023/01/25 03:01:23;;;;;;;13.85;8.77;;;2.70;83.70;;;;;;5055742;28;20127;-74
2023/01/25 03:03:49;;;;;;;16.00;9.52;;;2.70;83.80;;;;;;5072730;28;20111;-75
2023/01/25 03:06:15;;;;;;;17.73;10.38;;;2.70;83.90;;;;;;5072583;28;20120;-75
2023/01/25 03:08:41;;;;;;;16.08;10.05;;;2.70;83.90;;;;;;5072780;28;20350;-75
2023/01/25 03:11:07;;;;;;;14.13;8.48;;;2.70;83.90;;;;;;5072595;28;20032;-74
2023/01/25 03:13:33;;;;;;;16.05;9.05;;;2.70;83.70;;;;;;5055926;28;20032;-75
2023/01/25 03:16:02;;;;;;;14.05;9.05;;;2.70;83.60;;;;;;5072547;28;20053;-75
2023/01/25 03:18:28;;;;;;;14.50;9.23;;;2.70;83.50;;;;;;5072359;28;20378;-75
2023/01/25 03:20:53;;;;;;;14.57;9.07;;;2.70;83.40;;;;;;5072335;28;20031;-74
2023/01/25 03:23:19;;;;;;;14.50;9.80;;;2.70;83.40;;;;;;5072298;28;20105;-74
2023/01/25 03:25:45;;;;;;;13.32;8.43;;;2.70;83.30;;;;;;5072436;28;20032;-75
2023/01/25 03:28:10;;;;;;;14.05;8.98;;;2.70;83.30;;;;;;5089345;28;20056;-75
2023/01/25 03:30:36;;;;;;;15.80;9.50;;;2.70;83.30;;;;;;5072253;28;20028;-75
2023/01/25 03:33:01;;;;;;;13.18;8.05;;;2.70;83.20;;;;;;5072254;28;20479;-74
2023/01/25 03:35:27;;;;;;;13.75;8.52;;;2.70;83.10;;;;;;5071949;28;20028;-75
2023/01/25 03:37:53;;;;;;;12.73;8.23;;;2.70;83.00;;;;;;5072167;28;20020;-77
2023/01/25 03:40:18;;;;;;;13.20;8.70;;;2.70;82.80;;;;;;5072594;28;20111;-77
2023/01/25 03:42:44;;;;;;;14.10;8.60;;;2.60;82.40;;;;;;5077322;28;20025;-78
2023/01/25 03:45:13;;;;;;;14.13;8.52;;;2.60;82.70;;;;;;5072150;28;20029;-76
2023/01/25 03:47:39;;;;;;;14.75;8.98;;;2.50;82.80;;;;;;5072038;28;20032;-77
2023/01/25 03:50:05;;;;;;;12.27;8.48;;;2.50;82.70;;;;;;5071824;28;20028;-78
2023/01/25 03:52:37;;;;;;;13.73;8.60;;;2.50;82.80;;;;;;5072050;28;20031;-77
2023/01/25 03:55:03;;;;;;;15.15;9.15;;;2.60;82.90;;;;;;5071968;28;20475;-77
2023/01/25 03:57:28;;;;;;;13.23;8.38;;;2.60;82.70;;;;;;5071955;28;20098;-76
2023/01/25 03:59:54;;;;;;;13.65;9.13;;;2.60;82.90;;;;;;5071419;28;20028;-76
2023/01/25 04:02:19;;;;;;;12.60;8.38;;;2.60;82.90;;;;;;5071859;28;20024;-75
2023/01/25 04:04:45;;;;;;;13.43;8.25;;;2.60;82.80;;;;;;5071635;28;20039;-75
2023/01/25 04:07:11;;;;;;;15.82;9.45;;;2.60;82.70;;;;;;5071853;28;20374;-74
2023/01/25 04:09:37;;;;;;;13.45;8.73;;;2.60;82.80;;;;;;5072976;28;20024;-76
2023/01/25 04:12:03;;;;;;;12.35;8.60;;;2.60;82.80;;;;;;5072258;28;20046;-77
2023/01/25 04:14:28;;;;;;;14.27;9.30;;;2.70;82.80;;;;;;5078212;28;20021;-75
2023/01/25 04:16:54;;;;;;;14.07;9.57;;;2.70;82.40;;;;;;5081445;28;20042;-76
2023/01/25 04:19:19;;;;;;;14.98;9.20;;;2.70;82.60;;;;;;5081356;28;20024;-74
2023/01/25 04:21:45;;;;;;;15.75;8.70;;;2.70;82.60;;;;;;5081779;28;20022;-78
2023/01/25 04:24:11;;;;;;;15.38;9.40;;;2.70;82.50;;;;;;5081599;28;20476;-76
2023/01/25 04:26:36;;;;;;;14.35;9.38;;;2.60;82.50;;;;;;5081587;28;20432;-76
2023/01/25 04:29:02;;;;;;;14.93;9.15;;;2.60;82.70;;;;;;5081690;28;20028;-75
2023/01/25 04:31:28;;;;;;;15.80;10.18;;;2.60;82.80;;;;;;5081453;28;20070;-76
2023/01/25 04:33:54;;;;;;;15.77;9.85;;;2.60;82.80;;;;;;5098135;28;20384;-77
2023/01/25 04:36:20;;;;;;;15.60;10.00;;;2.70;83.70;;;;;;5081272;28;20024;-76
2023/01/25 04:38:45;;;;;;;15.20;9.77;;;2.70;82.80;;;;;;5098423;28;20028;-79
2023/01/25 04:41:12;;;;;;;16.17;9.63;;;2.70;83.30;;;;;;5099581;28;20028;-79
2023/01/25 04:43:37;;;;;;;15.52;10.60;;;2.70;82.40;;;;;;5081214;28;20503;-79
2023/01/25 04:46:03;;;;;;;16.25;10.30;;;2.70;82.50;;;;;;5097942;28;20028;-78
2023/01/25 04:48:29;;;;;;;15.48;9.90;;;2.60;82.40;;;;;;5081034;28;20030;-75
2023/01/25 04:50:54;;;;;;;16.10;9.77;;;2.60;82.50;;;;;;5081390;28;20384;-75
2023/01/25 04:53:20;;;;;;;15.18;9.25;;;2.60;82.50;;;;;;5081021;28;20044;-79
2023/01/25 04:55:47;;;;;;;16.23;9.80;;;2.60;82.60;;;;;;5081467;28;20024;-77
2023/01/25 04:58:12;;;;;;;15.52;9.63;;;2.60;82.50;;;;;;5081536;28;20353;-76
2023/01/25 05:00:38;;;;;;;17.23;10.82;;;2.60;82.50;;;;;;5081016;28;20027;-75
2023/01/25 05:03:04;;;;;;;19.27;10.57;;;2.60;82.60;;;;;;5098176;28;20537;-75
2023/01/25 05:05:29;;;;;;;18.58;10.48;;;2.60;82.60;;;;;;5097941;28;20043;-75
2023/01/25 05:07:55;;;;;;;16.75;9.80;;;2.60;83.40;;;;;;5098035;28;20017;-73
2023/01/25 05:10:20;;;;;;;17.25;10.35;;;2.50;82.70;;;;;;5080728;28;20509;-75
2023/01/25 05:12:46;;;;;;;15.68;9.75;;;2.60;82.70;;;;;;5080817;28;20024;-76
2023/01/25 05:15:11;;;;;;;17.00;10.57;;;2.60;82.70;;;;;;5080975;28;20052;-75
2023/01/25 05:17:37;;;;;;;15.70;9.68;;;2.50;82.80;;;;;;5097819;28;20028;-77
2023/01/25 05:20:03;;;;;;;15.02;10.23;;;2.60;82.80;;;;;;5081199;28;20038;-76
2023/01/25 05:22:29;;;;;;;14.95;9.68;;;2.60;82.90;;;;;;5098180;28;20020;-75
2023/01/25 05:24:55;;;;;;;16.40;10.00;;;2.60;82.80;;;;;;5078988;28;20438;-78
2023/01/25 05:27:20;;;;;;;16.58;10.25;;;2.60;82.60;;;;;;5094909;28;20028;-78
2023/01/25 05:29:46;;;;;;;18.30;10.75;;;2.60;82.60;;;;;;5094879;28;20050;-75
2023/01/25 05:32:15;;;;;;;14.38;9.75;;;2.60;82.60;;;;;;5094793;28;20368;-76
2023/01/25 05:34:41;;;;;;;15.02;9.85;;;2.60;82.30;;;;;;5077884;28;20028;-74
2023/01/25 05:37:08;;;;;;;14.35;8.85;;;2.60;82.10;;;;;;5077335;28;20024;-77
2023/01/25 05:39:34;;;;;;;14.25;8.98;;;2.60;82.00;;;;;;5077439;28;20028;-76
2023/01/25 05:42:00;;;;;;;15.40;9.38;;;2.60;81.90;;;;;;5077615;28;20024;-76
2023/01/25 05:44:26;;;;;;;13.30;8.65;;;2.60;81.70;;;;;;5077320;28;20028;-76
2023/01/25 05:46:51;;;;;;;13.88;9.52;;;2.50;81.70;;;;;;5077210;28;20101;-75
2023/01/25 05:49:18;;;;;;;14.50;9.07;;;2.50;81.70;;;;;;5077451;28;20095;-76
2023/01/25 05:51:44;;;;;;;15.65;9.80;;;2.50;81.70;;;;;;5077623;28;20050;-75
2023/01/25 05:54:16;;;;;;;12.38;8.52;;;2.50;81.70;;;;;;5078202;28;20023;-76
2023/01/25 05:56:43;;;;;;;14.93;8.85;;;2.50;81.70;;;;;;5091081;28;20468;-74
2023/01/25 05:59:10;;;;;;;14.40;8.43;;;2.50;81.50;;;;;;5081593;28;20020;-75
2023/01/25 06:01:36;;;;;;;14.13;8.55;;;2.50;81.50;;;;;;5077566;28;20016;-74
2023/01/25 06:04:02;;;;;;;13.95;8.27;;;2.60;82.20;;;;;;5076489;28;20053;-75
2023/01/25 06:06:28;;;;;;;14.90;8.75;;;2.60;81.30;;;;;;5076112;28;20028;-75
2023/01/25 06:08:54;;;;;;;14.02;9.13;;;2.50;81.20;;;;;;5075879;28;20305;-75
2023/01/25 06:11:23;;;;;;;14.15;8.88;;;2.50;81.20;;;;;;5075527;28;20025;-75
2023/01/25 06:13:49;;;;;;;13.73;8.25;;;2.50;81.30;;;;;;5075715;28;20036;-75
2023/01/25 06:16:16;;;;;;;15.68;9.40;;;2.60;82.10;;;;;;5076313;28;20040;-76
2023/01/25 06:18:42;;;;;;;14.90;8.48;;;2.60;81.20;;;;;;5076422;28;20024;-74
2023/01/25 06:21:08;;;;;;;16.02;9.63;;;2.60;81.20;;;;;;5076429;28;20479;-74
2023/01/25 06:23:33;;;;;;;15.13;9.57;;;2.60;81.20;;;;;;5075654;28;20032;-75
2023/01/25 06:26:01;;;;;;;13.07;8.45;;;2.60;81.30;;;;;;5075952;28;20349;-76
2023/01/25 06:28:31;;;;;;;14.40;8.73;;;2.60;81.30;;;;;;5075900;28;20020;-75
2023/01/25 06:31:09;;;;;;;15.73;9.60;;;2.60;81.20;;;;;;5075611;28;20024;-75
2023/01/25 06:33:35;;;;;;;15.73;10.18;;;2.60;81.20;;;;;;5075943;28;20385;-74
2023/01/25 06:36:04;;;;;;;16.30;9.82;;;2.60;81.20;;;;;;5092597;28;20020;-76
2023/01/25 06:38:30;;;;;;;14.90;9.48;;;2.70;81.20;;;;;;5076275;28;20031;-74
2023/01/25 06:41:04;;;;;;;14.73;9.43;;;2.70;81.00;;;;;;5075778;28;20020;-75
2023/01/25 06:43:31;;;;;;;14.52;8.63;;;2.60;80.60;;;;;;5075831;28;20056;-75
2023/01/25 06:46:01;;;;;;;13.07;8.35;;;2.70;80.50;;;;;;5075817;28;20032;-75
2023/01/25 06:48:28;;;;;;;14.63;8.90;;;2.60;80.00;;;;;;5076016;28;20020;-76
2023/01/25 06:51:02;;;;;;;12.55;8.23;;;2.60;79.80;;;;;;5075756;28;20035;-77
2023/01/25 06:53:30;;;;;;;11.13;7.00;;;2.50;79.80;;;;;;5059234;28;20484;-75
2023/01/25 06:56:17;;;;;;;14.05;8.52;;;2.50;80.10;;;;;;5076093;28;20060;-74
2023/01/25 06:58:43;;;;;;;12.32;7.80;;;2.40;80.30;;;;;;5075808;28;20042;-76
2023/01/25 07:01:18;;;;;;;13.77;8.07;;;2.40;80.30;;;;;;5075299;28;20028;-77
2023/01/25 07:03:51;;;;;;;14.20;8.35;;;2.40;80.50;;;;;;5075091;28;20024;-77
2023/01/25 07:06:18;;;;;;;15.35;9.60;;;2.40;80.40;;;;;;5075645;28;20051;-77
2023/01/25 07:08:43;;;;;;;13.98;9.20;;;2.40;80.50;;;;;;5075736;28;20047;-78
2023/01/25 07:11:12;;;;;;;17.65;9.73;;;2.40;80.70;;;;;;5075525;28;20031;-76
2023/01/25 07:13:40;;;;;;;14.45;9.15;;;2.30;80.90;;;;;;5093619;28;20103;-76
2023/01/25 07:16:11;;;;;;;14.60;9.30;;;2.40;81.00;;;;;;5059132;28;20083;-76
2023/01/25 07:18:39;;;;;;;16.63;9.57;;;2.40;81.00;;;;;;5058732;28;20016;-75
2023/01/25 07:21:21;;;;;;;16.85;9.68;;;2.40;80.80;;;;;;5075298;28;20104;-76
2023/01/25 07:23:48;;;;;;;14.73;9.02;;;2.40;80.70;;;;;;5075513;28;20032;-76
2023/01/25 07:26:16;;;;;;;15.98;9.55;;;2.40;80.80;;;;;;5075246;28;20038;-76
2023/01/25 07:28:43;;;;;;;11.63;7.90;;;2.40;80.70;;;;;;5074994;28;20354;-76
2023/01/25 07:31:08;;;;;;;17.15;10.18;;;2.40;80.80;;;;;;5074740;28;20040;-76
2023/01/25 07:33:34;;;;;;;14.65;9.50;;;2.40;80.80;;;;;;5093303;28;20034;-76
2023/01/25 07:36:01;;;;;;;16.60;9.68;;;2.50;80.80;;;;;;5074917;28;20383;-76
2023/01/25 07:38:27;;;;;;;16.35;9.93;;;2.50;80.80;;;;;;5075080;28;20024;-76
2023/01/25 07:40:53;;;;;;;15.52;9.65;;;2.50;81.20;;;;;;5074882;28;20043;-76
2023/01/25 07:43:19;;;;;;;17.20;10.30;;;2.50;80.60;;;;;;5074742;28;20035;-76
2023/01/25 07:45:47;;;;;;;15.25;9.63;;;2.50;80.60;;;;;;5091512;28;20039;-76
2023/01/25 07:48:14;;;;;;;16.27;9.48;;;2.60;80.60;;;;;;5074216;28;20518;-76
2023/01/25 07:50:40;;;;;;;16.20;10.20;;;2.60;80.50;;;;;;5075111;28;20073;-77
2023/01/25 07:53:06;;;;;;;17.27;10.15;;;2.60;80.40;;;;;;5091805;28;20020;-76
2023/01/25 07:55:33;;;;;;;16.65;9.45;;;2.70;80.40;;;;;;5080428;28;20024;-76
2023/01/25 07:57:59;;;;;;;16.90;10.32;;;2.60;80.30;;;;;;5075684;28;20401;-75
2023/01/25 08:00:25;;;;;;;15.80;10.10;;;2.70;80.30;;;;;;5074754;28;20037;-75
2023/01/25 08:02:51;;;;;;;14.57;9.43;;;2.70;80.30;;;;;;5091758;28;20025;-75
2023/01/25 08:05:18;;;;;;;14.38;9.40;;;2.70;80.20;;;;;;5074568;28;20040;-75
2023/01/25 08:07:43;;;;;;;18.02;10.43;;;2.70;80.30;;;;;;5074367;28;20020;-76
2023/01/25 08:10:09;;;;;;;17.05;10.65;;;2.80;80.10;;;;;;5074274;28;20503;-75
2023/01/25 08:12:35;;;;;;;15.23;10.20;;;2.80;80.10;;;;;;5091261;28;20027;-74
2023/01/25 08:15:01;;;;;;;15.30;9.88;;;2.90;79.90;;;;;;5091177;28;20385;-75
2023/01/25 08:17:30;;;;;;;14.82;9.25;;;2.90;79.70;;;;;;5074101;28;20101;-75
2023/01/25 08:20:00;;;;;;;16.85;10.07;;;2.80;79.60;;;;;;5074747;28;20024;-74
2023/01/25 08:22:27;;;;;;;15.98;9.95;;;2.80;79.50;;;;;;5091591;28;20107;-75
2023/01/25 08:24:53;;;;;;;17.15;10.57;;;2.80;79.50;;;;;;5074289;28;20032;-75
2023/01/25 08:27:19;;;;;;;23.08;10.88;;;2.90;79.60;;;;;;5091321;28;20081;-75
2023/01/25 08:29:46;;;;;;;18.27;10.73;;;3.00;79.70;;;;;;5091277;28;20024;-77
2023/01/25 08:32:11;;;;;;;19.17;10.68;;;3.00;79.80;;;;;;5074767;28;20020;-74
2023/01/25 08:34:38;;;;;;;16.15;9.35;;;3.10;79.60;;;;;;5091304;28;20119;-75
2023/01/25 08:37:04;;;;;;;13.77;9.07;;;3.20;79.30;;;;;;5074449;28;20368;-75
2023/01/25 08:39:30;;;;;;;15.10;8.65;;;3.20;78.60;;;;;;5074305;28;20031;-75
2023/01/25 08:41:55;;;;;;;12.90;7.97;;;3.20;78.20;;;;;;5074755;28;20380;-75
2023/01/25 08:44:22;;;;;;;12.05;7.43;;;3.20;78.10;;;;;;5071745;28;20385;-75
2023/01/25 08:46:48;;;;;;;12.40;7.80;;;3.20;78.70;;;;;;5067954;28;20020;-75
2023/01/25 08:49:14;;;;;;;12.98;7.93;;;3.20;79.60;;;;;;5074382;28;20503;-74
2023/01/25 08:51:40;;;;;;;14.30;8.02;;;3.30;79.60;;;;;;5074608;28;20024;-75
2023/01/25 08:54:09;;;;;;;12.63;7.25;;;3.30;78.80;;;;;;5074679;28;20032;-75
2023/01/25 08:56:39;;;;;;;12.52;7.90;;;3.50;78.90;;;;;;5074690;28;20032;-76
2023/01/25 08:59:06;;;;;;;14.70;8.98;;;3.50;78.30;;;;;;5075818;28;20024;-77
2023/01/25 09:01:31;;;;;;;14.68;7.32;;;3.90;83.00;;;;;;5063942;28;20021;-76
2023/01/25 09:03:57;;;;;;;11.75;6.72;;;4.30;79.50;;;;;;5059393;28;20079;-76
2023/01/25 09:06:23;;;;;;;10.68;6.82;;;4.80;75.90;;;;;;5074757;28;20036;-76
2023/01/25 09:08:48;;;;;;;10.05;6.32;;;5.30;73.40;;;;;;5077903;28;20024;-75
2023/01/25 09:11:21;;;;;;;9.05;6.25;;;5.80;70.70;;;;;;5078320;28;20074;-76
2023/01/25 09:13:48;;;;;;;11.32;6.25;;;6.20;68.20;;;;;;5078114;28;20019;-75
2023/01/25 09:16:16;;;;;;;9.18;6.10;;;6.50;66.60;;;;;;5077005;28;20048;-75
2023/01/25 09:18:43;;;;;;;9.45;6.35;;;6.50;65.30;;;;;;5077645;28;20016;-75
2023/01/25 09:21:15;;;;;;;8.90;5.80;;;6.70;64.70;;;;;;5077734;28;20053;-75
2023/01/25 09:23:43;;;;;;;9.55;5.82;;;7.00;63.60;;;;;;5077871;28;20090;-75
2023/01/25 09:26:10;;;;;;;10.85;6.85;;;6.80;63.00;;;;;;5077955;28;20078;-76
2023/01/25 09:28:36;;;;;;;15.80;9.88;;;6.40;63.10;;;;;;5077683;28;20027;-74
2023/01/25 09:31:03;;;;;;;12.80;7.55;;;6.10;64.10;;;;;;5077694;28;20028;-74
2023/01/25 09:33:35;;;;;;;12.07;8.38;;;5.70;65.10;;;;;;5077538;28;20107;-74
2023/01/25 09:36:03;;;;;;;12.07;7.38;;;5.30;67.20;;;;;;5077483;28;20541;-74
2023/01/25 09:38:29;;;;;;;11.98;7.85;;;5.00;67.50;;;;;;5077396;28;20020;-74
2023/01/25 09:41:04;;;;;;;10.30;6.72;;;4.80;68.50;;;;;;5077642;28;20017;-73
2023/01/25 09:44:06;;;;;;;15.38;9.25;;;4.70;69.50;;;;;;5077078;28;20053;-74
2023/01/25 09:46:51;;;;;;;15.23;9.48;;;4.50;70.60;;;;;;5076998;28;20033;-74
2023/01/25 09:49:42;;;;;;;20.05;12.07;;;4.30;71.70;;;;;;5077160;28;20050;-73
2023/01/25 09:52:49;;;;;;;20.65;12.45;;;4.10;73.40;;;;;;5077125;28;20111;-74
2023/01/25 09:55:17;;;;;;;21.13;12.25;;;3.90;74.40;;;;;;5093743;28;20028;-73
2023/01/25 09:57:46;;;;;;;19.75;11.70;;;3.70;75.60;;;;;;5093773;28;20054;-75
2023/01/25 10:00:22;;;;;;;22.05;13.18;;;3.60;75.60;;;;;;5095404;28;20028;-77
2023/01/25 10:03:20;;;;;;;19.20;12.70;;;3.60;76.10;;;;;;5083969;28;20431;-74
2023/01/25 10:05:51;;;;;;;19.13;11.35;;;3.40;76.80;;;;;;5094114;28;20032;-74
2023/01/25 10:09:04;;;;;;;21.05;12.25;;;3.40;77.10;;;;;;5055273;28;20441;-74
2023/01/25 10:11:31;;;;;;;20.13;11.75;;;3.40;77.30;;;;;;5093229;28;20031;-74
2023/01/25 10:13:59;;;;;;;19.25;10.98;;;3.30;77.50;;;;;;5093462;28;20496;-76
2023/01/25 10:16:34;;;;;;;21.23;12.27;;;3.30;77.40;;;;;;5092815;28;20093;-74
2023/01/25 10:19:29;;;;;;;24.13;12.55;;;3.20;77.30;;;;;;5093053;28;20024;-76
2023/01/25 10:22:01;;;;;;;18.33;10.90;;;3.20;77.90;;;;;;5055351;28;20638;-74
2023/01/25 10:24:57;;;;;;;19.83;11.32;;;3.10;77.90;;;;;;5074842;28;20040;-74
2023/01/25 10:27:40;;;;;;;17.00;11.00;;;3.20;77.80;;;;;;5057118;28;20032;-74
2023/01/25 10:30:30;;;;;;;19.33;11.40;;;3.20;78.10;;;;;;5074490;28;20038;-73
2023/01/25 10:33:04;;;;;;;18.75;11.30;;;3.10;78.70;;;;;;5067649;28;20070;-75
2023/01/25 10:35:36;;;;;;;19.40;11.07;;;3.10;78.00;;;;;;5064086;28;20027;-75
2023/01/25 10:38:23;;;;;;;21.48;11.82;;;3.10;78.20;;;;;;5084207;28;20020;-73
2023/01/25 10:41:01;;;;;;;18.10;11.20;;;3.00;78.30;;;;;;5056204;28;20020;-73
2023/01/25 10:43:27;;;;;;;23.08;12.57;;;3.00;78.40;;;;;;5055920;28;20072;-73
2023/01/25 10:45:52;;;;;;;23.35;12.82;;;2.90;78.80;;;;;;5056131;28;20056;-75
2023/01/25 10:48:35;;;;;;;22.67;13.35;;;2.90;79.40;;;;;;5065532;28;20055;-74
2023/01/25 10:51:01;;;;;;;25.67;14.23;;;2.80;79.60;;;;;;5054786;28;20031;-78
2023/01/25 10:53:31;;;;;;;28.63;15.80;;;2.90;79.90;;;;;;5073516;28;20021;-76
2023/01/25 10:55:59;;;;;;;24.80;15.40;;;2.80;80.50;;;;;;5056021;28;20024;-75
2023/01/25 10:58:34;;;;;;;28.77;15.77;;;2.70;80.90;;;;;;5055591;28;20036;-77
2023/01/25 11:01:03;;;;;;;26.42;15.30;;;2.80;81.10;;;;;;5060686;28;20027;-75
2023/01/25 11:03:55;;;;;;;31.00;15.77;;;2.80;81.20;;;;;;5074817;28;20035;-76
2023/01/25 11:06:50;;;;;;;26.85;14.20;;;2.80;81.00;;;;;;5072190;28;20475;-76
2023/01/25 11:09:21;;;;;;;26.55;15.13;;;2.80;80.90;;;;;;5075006;28;20036;-75
2023/01/25 11:11:59;;;;;;;27.98;16.23;;;2.80;80.90;;;;;;5074853;28;20024;-79
2023/01/25 11:14:28;;;;;;;30.30;15.10;;;2.90;81.10;;;;;;5058268;28;20031;-77
2023/01/25 11:16:55;;;;;;;26.35;14.30;;;2.90;80.90;;;;;;5042276;28;20036;-75
2023/01/25 11:19:31;;;;;;;30.00;14.98;;;2.90;81.00;;;;;;5075141;28;20028;-75
2023/01/25 11:22:00;;;;;;;25.25;14.15;;;2.90;80.90;;;;;;5075114;28;20050;-75
2023/01/25 11:24:44;;;;;;;26.25;14.07;;;2.90;80.90;;;;;;5074931;28;20108;-76
2023/01/25 11:27:25;;;;;;;22.30;14.00;;;3.00;80.50;;;;;;5053069;28;20040;-76
2023/01/25 11:30:09;;;;;;;24.40;14.77;;;3.10;80.40;;;;;;5058238;28;20039;-76
2023/01/25 11:32:38;;;;;;;22.15;13.70;;;3.10;79.90;;;;;;5075059;28;20028;-75
2023/01/25 11:35:15;;;;;;;21.40;12.85;;;3.10;79.90;;;;;;5075451;28;20028;-75
2023/01/25 11:38:13;;;;;;;26.02;14.07;;;3.10;80.00;;;;;;5075288;28;20430;-75
2023/01/25 11:40:45;;;;;;;27.35;15.60;;;3.10;79.70;;;;;;5082906;28;20039;-76
2023/01/25 11:43:51;;;;;;;27.60;15.25;;;3.10;79.80;;;;;;5071515;28;20046;-80
2023/01/25 11:46:30;;;;;;;28.88;14.98;;;3.00;79.60;;;;;;5042519;28;20078;-76
2023/01/25 11:49:18;;;;;;;31.83;16.40;;;3.00;79.80;;;;;;5038219;28;20150;-76
2023/01/25 11:52:20;;;;;;;28.00;15.40;;;3.00;79.80;;;;;;5070883;28;20081;-77
2023/01/25 11:55:20;;;;;;;31.38;15.57;;;3.00;80.10;;;;;;5054513;28;20028;-78
2023/01/25 11:58:16;;;;;;;27.17;15.63;;;2.90;80.40;;;;;;5071131;28;20028;-76
2023/01/25 12:01:16;;;;;;;29.90;15.88;;;2.90;80.30;;;;;;5054226;28;20381;-76
2023/01/25 12:04:16;;;;;;;29.98;16.08;;;2.80;80.60;;;;;;5070926;28;20546;-77
2023/01/25 12:07:03;;;;;;;27.40;15.10;;;2.80;80.50;;;;;;5054514;28;20057;-78
2023/01/25 12:09:32;;;;;;;27.85;15.85;;;2.80;81.30;;;;;;5072814;28;20024;-79
2023/01/25 12:12:13;;;;;;;25.25;14.45;;;2.80;80.60;;;;;;5071407;28;20116;-78
2023/01/25 12:14:44;;;;;;;25.92;15.15;;;2.80;80.60;;;;;;5071553;28;20031;-79
2023/01/25 12:17:50;;;;;;;22.65;14.32;;;2.70;80.80;;;;;;5078666;28;20032;-75
2023/01/25 12:20:44;;;;;;;26.33;15.23;;;2.70;80.80;;;;;;5060804;28;20469;-76
2023/01/25 12:23:37;;;;;;;26.73;15.27;;;2.70;80.90;;;;;;5053443;28;20572;-76
2023/01/25 12:26:43;;;;;;;28.00;15.65;;;2.70;80.80;;;;;;5054400;28;20036;-77
2023/01/25 12:29:24;;;;;;;23.95;13.88;;;2.70;80.80;;;;;;5071324;28;20028;-76
2023/01/25 12:31:57;;;;;;;23.33;14.32;;;2.80;81.00;;;;;;5054613;28;20086;-76
2023/01/25 12:34:26;;;;;;;25.40;13.93;;;2.70;80.70;;;;;;5056387;28;20074;-76
2023/01/25 12:36:53;;;;;;;24.08;13.38;;;2.80;80.70;;;;;;5075161;28;20119;-76
2023/01/25 12:39:33;;;;;;;24.73;15.02;;;2.80;80.50;;;;;;5041700;28;20024;-83
2023/01/25 12:42:11;;;;;;;26.60;14.43;;;2.80;80.60;;;;;;5059243;28;20063;-83
2023/01/25 12:45:00;;;;;;;32.47;15.63;;;2.80;80.60;;;;;;5042050;28;20085;-83
2023/01/25 12:47:55;;;;;;;28.33;14.57;;;2.80;80.60;;;;;;5052670;28;20028;-83
2023/01/25 12:50:45;;;;;;;26.80;15.23;;;2.80;80.50;;;;;;5058553;28;20116;-81
2023/01/25 12:53:36;;;;;;;26.52;15.55;;;2.80;80.50;;;;;;5058248;28;20020;-77
2023/01/25 12:56:06;;;;;;;28.92;15.38;;;2.80;80.70;;;;;;5058370;28;20411;-76
2023/01/25 12:58:43;;;;;;;26.75;14.60;;;2.80;80.70;;;;;;5058397;28;20056;-76
2023/01/25 13:01:18;;;;;;;28.40;16.13;;;2.80;80.60;;;;;;5058299;28;20024;-76